createdAt,value
2023-05-16T00:00:06.825Z,13.93
2023-05-16T00:02:34.984Z,15.43
2023-05-16T00:05:04.454Z,15.27
2023-05-16T00:07:34.107Z,13.63
2023-05-16T00:10:02.879Z,13.40
2023-05-16T00:12:32.949Z,11.83
2023-05-16T00:15:02.316Z,13.67
2023-05-16T00:17:30.306Z,13.60
2023-05-16T00:20:00.195Z,16.27
2023-05-16T00:22:28.339Z,13.97
2023-05-16T00:24:56.352Z,15.60
2023-05-16T00:27:24.316Z,14.80
2023-05-16T00:29:52.450Z,14.53
2023-05-16T00:32:22.344Z,15.67
2023-05-16T00:34:50.808Z,16.07
2023-05-16T00:37:18.991Z,16.53
2023-05-16T00:39:47.105Z,17.10
2023-05-16T00:42:15.233Z,17.60
2023-05-16T00:44:43.278Z,21.90
2023-05-16T00:47:11.362Z,18.07
2023-05-16T00:49:40.923Z,17.93
2023-05-16T00:52:08.912Z,19.77
2023-05-16T00:54:38.251Z,21.33
2023-05-16T00:57:08.180Z,19.83
2023-05-16T00:59:37.962Z,20.47
2023-05-16T01:02:06.385Z,22.57
2023-05-16T01:04:35.506Z,19.83
2023-05-16T01:07:05.170Z,19.60
2023-05-16T01:09:36.658Z,20.03
2023-05-16T01:12:16.004Z,21.37
2023-05-16T01:14:54.172Z,21.77
2023-05-16T01:17:30.324Z,22.53
2023-05-16T01:20:12.094Z,21.17
2023-05-16T01:23:02.788Z,24.37
2023-05-16T01:25:46.854Z,20.37
2023-05-16T01:28:18.839Z,21.20
2023-05-16T01:30:47.242Z,20.27
2023-05-16T01:33:15.305Z,23.87
2023-05-16T01:35:55.366Z,22.87
2023-05-16T01:38:27.504Z,23.30
2023-05-16T01:41:01.087Z,23.90
2023-05-16T01:43:36.644Z,24.73
2023-05-16T01:46:13.504Z,22.70
2023-05-16T01:48:52.452Z,23.50
2023-05-16T01:51:23.810Z,27.80
2023-05-16T01:53:58.318Z,28.17
2023-05-16T01:56:27.491Z,26.30
2023-05-16T01:58:59.136Z,25.60
2023-05-16T02:01:27.263Z,24.40
2023-05-16T02:03:55.410Z,25.63
2023-05-16T02:06:23.766Z,27.17
2023-05-16T02:08:51.816Z,25.47
2023-05-16T02:11:19.946Z,25.87
2023-05-16T02:13:47.940Z,27.97
2023-05-16T02:16:17.595Z,31.63
2023-05-16T02:18:45.994Z,28.43
2023-05-16T02:21:19.711Z,27.87
2023-05-16T02:23:47.869Z,35.27
2023-05-16T02:26:15.953Z,29.30
2023-05-16T02:28:44.316Z,32.23
2023-05-16T02:31:13.407Z,28.50
2023-05-16T02:33:42.740Z,29.83
2023-05-16T02:36:11.443Z,31.53
2023-05-16T02:38:39.452Z,28.43
2023-05-16T02:41:07.475Z,28.63
2023-05-16T02:43:35.493Z,31.43
2023-05-16T02:46:06.197Z,33.93
2023-05-16T02:48:34.244Z,32.57
2023-05-16T02:51:04.104Z,33.57
2023-05-16T02:53:32.120Z,29.60
2023-05-16T02:56:00.375Z,36.53
2023-05-16T02:58:28.704Z,33.33
2023-05-16T03:00:56.666Z,35.30
2023-05-16T03:03:24.851Z,37.43
2023-05-16T03:05:53.133Z,32.23
2023-05-16T03:08:22.448Z,35.80
2023-05-16T03:10:50.792Z,38.03
2023-05-16T03:13:18.803Z,34.33
2023-05-16T03:15:47.940Z,33.60
2023-05-16T03:18:17.176Z,36.23
2023-05-16T03:20:45.326Z,33.37
2023-05-16T03:23:13.336Z,36.63
2023-05-16T03:25:43.654Z,35.87
2023-05-16T03:28:15.149Z,37.10
2023-05-16T03:30:43.475Z,35.80
2023-05-16T03:33:11.832Z,38.00
2023-05-16T03:35:40.870Z,37.77
2023-05-16T03:38:09.116Z,36.03
2023-05-16T03:40:37.439Z,37.30
2023-05-16T03:43:10.204Z,36.87
2023-05-16T03:45:38.321Z,41.57
2023-05-16T03:48:07.116Z,39.60
2023-05-16T03:50:39.532Z,34.20
2023-05-16T03:53:09.302Z,36.90
2023-05-16T03:55:37.509Z,37.10
2023-05-16T03:58:05.517Z,40.63
2023-05-16T04:00:37.736Z,35.23
2023-05-16T04:03:05.860Z,40.57
2023-05-16T04:05:33.975Z,43.93
2023-05-16T04:08:02.085Z,42.43
2023-05-16T04:10:30.531Z,37.47
2023-05-16T04:12:58.531Z,40.80
2023-05-16T04:15:26.654Z,39.03
2023-05-16T04:17:56.756Z,37.03
2023-05-16T04:20:24.843Z,36.43
2023-05-16T04:22:53.311Z,39.67
2023-05-16T04:25:21.367Z,45.20
2023-05-16T04:27:49.374Z,40.30
2023-05-16T04:30:17.768Z,39.37
2023-05-16T04:32:46.175Z,39.27
2023-05-16T04:35:16.127Z,40.00
2023-05-16T04:37:44.273Z,43.60
2023-05-16T04:40:14.355Z,40.37
2023-05-16T04:42:42.420Z,36.90
2023-05-16T04:45:14.632Z,41.57
2023-05-16T04:47:42.990Z,40.63
2023-05-16T04:50:11.941Z,39.87
2023-05-16T04:52:41.397Z,39.07
2023-05-16T04:55:11.590Z,35.70
2023-05-16T04:57:39.700Z,36.47
2023-05-16T05:00:13.599Z,36.73
2023-05-16T05:02:41.889Z,35.87
2023-05-16T05:05:10.714Z,37.30
2023-05-16T05:07:38.768Z,34.93
2023-05-16T05:10:09.415Z,37.37
2023-05-16T05:12:37.480Z,34.73
2023-05-16T05:15:07.224Z,39.97
2023-05-16T05:17:35.700Z,38.10
2023-05-16T05:20:06.821Z,38.70
2023-05-16T05:22:34.924Z,35.47
2023-05-16T05:25:03.547Z,35.07
2023-05-16T05:27:33.044Z,38.70
2023-05-16T05:30:01.190Z,32.67
2023-05-16T05:32:29.303Z,35.73
2023-05-16T05:34:57.408Z,36.97
2023-05-16T05:37:25.499Z,36.23
2023-05-16T05:39:53.558Z,33.43
2023-05-16T05:42:21.587Z,35.93
2023-05-16T05:44:51.096Z,30.93
2023-05-16T05:47:19.393Z,31.53
2023-05-16T05:49:47.562Z,31.53
2023-05-16T05:52:16.137Z,31.37
2023-05-16T05:54:44.169Z,33.27
2023-05-16T05:57:12.294Z,28.23
2023-05-16T05:59:40.727Z,30.73
2023-05-16T06:02:15.617Z,31.20
2023-05-16T06:04:45.271Z,33.87
2023-05-16T06:07:15.265Z,31.43
2023-05-16T06:09:43.652Z,30.30
2023-05-16T06:12:11.773Z,28.63
2023-05-16T06:14:40.054Z,29.13
2023-05-16T06:17:09.498Z,35.73
2023-05-16T06:19:37.652Z,29.00
2023-05-16T06:22:06.070Z,30.10
2023-05-16T06:24:34.235Z,31.43
2023-05-16T06:27:02.221Z,30.17
2023-05-16T06:29:30.284Z,27.53
2023-05-16T06:31:58.543Z,25.43
2023-05-16T06:34:28.670Z,27.10
2023-05-16T06:36:56.899Z,24.80
2023-05-16T06:39:24.986Z,30.53
2023-05-16T06:41:56.191Z,25.10
2023-05-16T06:44:25.068Z,26.77
2023-05-16T06:46:53.265Z,24.83
2023-05-16T06:49:21.471Z,26.40
2023-05-16T06:51:50.909Z,25.37
2023-05-16T06:54:19.034Z,27.13
2023-05-16T06:56:47.168Z,24.23
2023-05-16T06:59:15.599Z,25.83
2023-05-16T07:01:43.812Z,23.80
2023-05-16T07:04:12.066Z,24.67
2023-05-16T07:06:40.159Z,24.97
2023-05-16T07:09:09.649Z,23.37
2023-05-16T07:11:37.720Z,23.80
2023-05-16T07:14:05.868Z,20.07
2023-05-16T07:16:34.036Z,21.47
2023-05-16T07:19:02.178Z,18.43
2023-05-16T07:21:30.449Z,18.03
2023-05-16T07:23:58.905Z,18.20
2023-05-16T07:26:28.516Z,18.20
2023-05-16T07:28:56.666Z,14.93
2023-05-16T07:31:25.294Z,16.87
2023-05-16T07:33:53.557Z,16.73
2023-05-16T07:36:21.760Z,20.33
2023-05-16T07:38:49.825Z,18.23
2023-05-16T07:41:17.963Z,22.67
2023-05-16T07:43:47.453Z,19.33
2023-05-16T07:46:18.244Z,24.30
2023-05-16T07:48:46.573Z,21.50
2023-05-16T07:51:14.757Z,18.53
2023-05-16T07:53:43.045Z,23.77
2023-05-16T07:56:11.393Z,22.57
2023-05-16T07:58:39.827Z,18.97
2023-05-16T08:01:09.219Z,15.63
2023-05-16T08:03:40.955Z,19.37
2023-05-16T08:06:09.334Z,15.80
2023-05-16T08:08:38.061Z,19.60
2023-05-16T08:11:30.188Z,17.40
2023-05-16T08:13:58.390Z,14.90
2023-05-16T08:16:27.897Z,14.77
2023-05-16T08:18:56.538Z,16.53
2023-05-16T08:21:24.810Z,18.73
2023-05-16T08:23:52.886Z,16.97
2023-05-16T08:26:22.029Z,17.20
2023-05-16T08:28:50.261Z,18.67
2023-05-16T08:31:18.375Z,20.20
2023-05-16T08:33:47.909Z,21.43
2023-05-16T08:36:16.206Z,20.13
2023-05-16T08:38:44.264Z,21.57
2023-05-16T08:41:12.374Z,23.33
2023-05-16T08:43:40.864Z,22.40
2023-05-16T08:46:09.622Z,24.33
2023-05-16T08:48:39.670Z,18.97
2023-05-16T08:51:10.868Z,22.17
2023-05-16T08:53:44.337Z,21.70
2023-05-16T08:56:13.959Z,21.93
2023-05-16T08:58:42.330Z,22.30
2023-05-16T09:01:11.185Z,20.97
2023-05-16T09:03:40.199Z,21.10
2023-05-16T09:06:09.867Z,19.93
2023-05-16T09:08:38.750Z,18.73
2023-05-16T09:11:07.064Z,21.30
2023-05-16T09:13:35.419Z,20.33
2023-05-16T09:16:11.327Z,21.87
2023-05-16T09:18:40.262Z,19.97
2023-05-16T09:21:11.242Z,19.83
2023-05-16T09:23:39.569Z,19.30
2023-05-16T09:26:08.596Z,19.30
2023-05-16T09:28:39.822Z,16.63
2023-05-16T09:31:22.868Z,18.40
2023-05-16T09:33:51.563Z,20.60
2023-05-16T09:36:21.075Z,17.27
2023-05-16T09:38:49.374Z,16.17
2023-05-16T09:41:17.592Z,19.53
2023-05-16T09:43:46.458Z,17.50
2023-05-16T09:46:15.688Z,20.43
2023-05-16T09:48:47.453Z,18.23
2023-05-16T09:51:16.354Z,18.90
2023-05-16T09:53:46.152Z,17.73
2023-05-16T09:56:16.358Z,16.07
2023-05-16T09:58:46.302Z,17.77
2023-05-16T10:01:14.506Z,17.83
2023-05-16T10:03:44.014Z,18.13
2023-05-16T10:06:13.896Z,15.27
2023-05-16T10:08:45.686Z,15.50
2023-05-16T10:11:15.254Z,14.63
2023-05-16T10:13:44.889Z,13.37
2023-05-16T10:16:16.065Z,14.17
2023-05-16T10:18:44.946Z,10.87
2023-05-16T10:21:17.838Z,14.97
2023-05-16T10:23:51.025Z,14.67
2023-05-16T10:26:19.248Z,13.13
2023-05-16T10:28:47.950Z,11.10
2023-05-16T10:31:17.780Z,13.13
2023-05-16T10:33:47.019Z,13.10
2023-05-16T10:36:16.408Z,11.23
2023-05-16T10:38:46.197Z,10.57
2023-05-16T10:41:15.234Z,11.30
2023-05-16T10:43:57.408Z,10.90
2023-05-16T10:46:28.007Z,9.97
2023-05-16T10:48:57.872Z,8.13
2023-05-16T10:51:38.893Z,6.83
2023-05-16T10:54:12.607Z,10.50
2023-05-16T10:56:41.122Z,7.67
2023-05-16T10:59:26.125Z,8.07
2023-05-16T11:01:56.893Z,7.83
2023-05-16T11:04:45.589Z,5.77
2023-05-16T11:07:13.897Z,6.00
2023-05-16T11:09:46.019Z,7.93
2023-05-16T11:12:15.662Z,9.80
2023-05-16T11:14:45.153Z,9.53
2023-05-16T11:17:16.294Z,10.23
2023-05-16T11:19:46.847Z,10.57
2023-05-16T11:22:26.890Z,8.30
2023-05-16T11:25:01.409Z,7.47
2023-05-16T11:27:32.548Z,8.57
2023-05-16T11:30:12.825Z,11.00
2023-05-16T11:32:43.665Z,9.07
2023-05-16T11:35:15.381Z,12.03
2023-05-16T11:37:44.100Z,7.53
2023-05-16T11:40:15.719Z,6.83
2023-05-16T11:42:46.272Z,7.30
2023-05-16T11:45:17.859Z,7.37
2023-05-16T11:47:48.862Z,8.03
2023-05-16T11:50:19.439Z,7.53
2023-05-16T11:52:50.532Z,6.10
2023-05-16T11:55:33.199Z,6.50
2023-05-16T11:58:09.276Z,8.23
2023-05-16T12:00:37.645Z,5.80
2023-05-16T12:03:06.864Z,5.30
2023-05-16T12:05:36.030Z,6.00
2023-05-16T12:08:05.645Z,6.63
2023-05-16T12:10:35.481Z,6.73
2023-05-16T12:13:04.824Z,6.97
2023-05-16T12:15:33.172Z,5.50
2023-05-16T12:18:02.445Z,5.77
2023-05-16T12:20:30.781Z,5.60
2023-05-16T12:22:59.479Z,5.43
2023-05-16T12:25:32.024Z,6.77
2023-05-16T12:28:03.465Z,4.10
2023-05-16T12:30:33.975Z,2.93
2023-05-16T12:33:07.995Z,2.40
2023-05-16T12:35:38.893Z,3.70
2023-05-16T12:38:10.010Z,3.30
2023-05-16T12:40:39.488Z,3.97
2023-05-16T12:43:15.327Z,3.50
2023-05-16T12:45:44.373Z,4.77
2023-05-16T12:48:16.112Z,4.00
2023-05-16T12:50:46.551Z,3.47
2023-05-16T12:53:17.050Z,5.03
2023-05-16T12:55:46.409Z,3.87
2023-05-16T12:58:16.517Z,4.97
2023-05-16T13:00:44.760Z,5.40
2023-05-16T13:03:12.959Z,3.67
2023-05-16T13:05:41.136Z,6.47
2023-05-16T13:13:54.710Z,4.73
2023-05-16T13:16:22.823Z,7.17
2023-05-16T13:18:51.038Z,4.27
2023-05-16T13:21:19.154Z,3.40
2023-05-16T13:23:47.215Z,4.67
2023-05-16T13:26:15.380Z,2.27
2023-05-16T13:28:43.962Z,3.33
2023-05-16T13:31:13.414Z,4.73
2023-05-16T13:33:41.808Z,5.93
2023-05-16T13:36:10.130Z,3.23
2023-05-16T13:38:38.423Z,3.47
2023-05-16T13:41:06.538Z,3.77
2023-05-16T13:43:34.740Z,2.60
2023-05-16T13:46:02.984Z,3.83
2023-05-16T13:48:32.544Z,6.47
2023-05-16T13:51:00.624Z,3.23
2023-05-16T13:53:28.662Z,3.53
2023-05-16T13:55:56.705Z,3.37
2023-05-16T13:58:24.813Z,4.83
2023-05-16T14:00:53.767Z,3.13
2023-05-16T14:03:22.863Z,3.97
2023-05-16T14:05:52.313Z,2.67
2023-05-16T14:08:20.610Z,2.00
2023-05-16T14:10:48.865Z,4.63
2023-05-16T14:13:17.205Z,2.80
2023-05-16T14:15:45.936Z,4.70
2023-05-16T14:18:14.635Z,4.77
2023-05-16T14:20:42.899Z,5.70
2023-05-16T14:23:12.677Z,5.03
2023-05-16T14:25:41.259Z,6.67
2023-05-16T14:28:09.616Z,3.00
2023-05-16T14:30:37.928Z,3.37
2023-05-16T14:33:06.665Z,3.10
2023-05-16T14:35:34.966Z,4.30
2023-05-16T14:38:03.022Z,5.03
2023-05-16T14:40:32.503Z,4.33
2023-05-16T14:43:00.890Z,4.80
2023-05-16T14:45:29.429Z,3.43
2023-05-16T14:47:57.770Z,4.27
2023-05-16T14:50:25.977Z,1.97
2023-05-16T14:52:54.090Z,2.60
2023-05-16T14:55:22.835Z,3.50
2023-05-16T14:57:59.019Z,3.80
2023-05-16T15:00:28.454Z,5.20
2023-05-16T15:02:56.818Z,4.73
2023-05-16T15:05:25.736Z,6.80
2023-05-16T15:07:53.922Z,4.10
2023-05-16T15:10:22.278Z,4.33
2023-05-16T15:12:51.765Z,5.67
2023-05-16T15:15:20.040Z,3.03
2023-05-16T15:17:48.568Z,3.03
2023-05-16T15:20:16.705Z,4.40
2023-05-16T15:22:44.991Z,5.93
2023-05-16T15:25:15.745Z,2.87
2023-05-16T15:27:44.348Z,6.90
2023-05-16T15:30:16.336Z,3.07
2023-05-16T15:32:44.938Z,3.10
2023-05-16T15:35:13.285Z,3.23
2023-05-16T15:37:43.632Z,5.23
2023-05-16T15:40:15.577Z,4.77
2023-05-16T15:42:44.879Z,6.20
2023-05-16T15:45:14.621Z,5.87
2023-05-16T15:47:42.955Z,2.43
2023-05-16T15:50:16.623Z,6.47
2023-05-16T15:52:44.869Z,3.73
2023-05-16T15:55:17.492Z,3.63
2023-05-16T15:57:45.657Z,3.97
2023-05-16T16:00:17.540Z,3.33
2023-05-16T16:02:46.142Z,6.37
2023-05-16T16:05:14.745Z,3.33
2023-05-16T16:07:43.045Z,3.77
2023-05-16T16:10:14.191Z,4.50
2023-05-16T16:12:42.334Z,4.03
2023-05-16T16:15:14.890Z,3.97
2023-05-16T16:17:43.601Z,5.93
2023-05-16T16:20:12.682Z,5.33
2023-05-16T16:22:40.964Z,7.13
2023-05-16T16:25:10.033Z,7.80
2023-05-16T16:27:38.210Z,5.17
2023-05-16T16:30:08.477Z,6.30
2023-05-16T16:32:38.250Z,7.07
2023-05-16T16:35:07.778Z,3.73
2023-05-16T16:37:36.690Z,2.63
2023-05-16T16:40:08.212Z,5.33
2023-05-16T16:42:38.036Z,3.33
2023-05-16T16:45:07.781Z,4.27
2023-05-16T16:47:39.305Z,3.40
2023-05-16T16:50:08.934Z,5.57
2023-05-16T16:52:37.224Z,4.10
2023-05-16T16:55:07.510Z,3.50
2023-05-16T16:57:35.724Z,4.33
2023-05-16T17:00:04.550Z,8.10
2023-05-16T17:02:33.783Z,2.63
2023-05-16T17:05:04.855Z,3.57
2023-05-16T17:07:33.131Z,4.23
2023-05-16T17:10:03.837Z,3.23
2023-05-16T17:12:34.656Z,3.80
2023-05-16T17:15:06.711Z,6.83
2023-05-16T17:17:35.097Z,5.70
2023-05-16T17:20:09.024Z,5.73
2023-05-16T17:22:37.435Z,4.30
2023-05-16T17:25:06.586Z,4.90
2023-05-16T17:27:37.581Z,3.10
2023-05-16T17:30:11.454Z,2.80
2023-05-16T17:32:40.087Z,3.77
2023-05-16T17:35:10.485Z,2.37
2023-05-16T17:37:38.583Z,4.50
2023-05-16T17:40:10.486Z,4.07
2023-05-16T17:42:38.931Z,7.03
2023-05-16T17:45:09.179Z,2.73
2023-05-16T17:47:37.908Z,2.87
2023-05-16T17:50:10.497Z,3.27
2023-05-16T17:52:40.504Z,2.83
2023-05-16T17:55:10.932Z,1.83
2023-05-16T17:57:39.283Z,2.20
2023-05-16T18:00:11.493Z,5.07
2023-05-16T18:02:40.091Z,4.87
2023-05-16T18:05:12.042Z,4.10
2023-05-16T18:07:41.069Z,4.10
2023-05-16T18:10:11.495Z,4.33
2023-05-16T18:12:40.429Z,4.40
2023-05-16T18:15:10.819Z,6.67
2023-05-16T18:17:39.264Z,3.40
2023-05-16T18:20:11.681Z,1.73
2023-05-16T18:22:41.256Z,5.30
2023-05-16T18:25:11.466Z,4.97
2023-05-16T18:27:39.786Z,3.63
2023-05-16T18:33:04.144Z,2.60
2023-05-16T18:35:33.825Z,5.87
2023-05-16T18:38:03.954Z,7.10
2023-05-16T18:40:32.582Z,2.30
2023-05-16T18:43:00.949Z,4.83
2023-05-16T18:45:30.818Z,2.83
2023-05-16T18:47:59.282Z,4.40
2023-05-16T18:50:28.332Z,6.53
2023-05-16T18:52:58.116Z,5.23
2023-05-16T18:55:26.849Z,2.43
2023-05-16T18:57:55.667Z,3.73
2023-05-16T19:00:24.108Z,2.00
2023-05-16T19:02:52.945Z,3.27
2023-05-16T19:05:21.359Z,2.30
2023-05-16T19:07:50.845Z,1.80
2023-05-16T19:10:20.747Z,4.43
2023-05-16T19:12:49.371Z,4.73
2023-05-16T19:15:18.833Z,2.30
2023-05-16T19:17:47.277Z,4.40
2023-05-16T19:20:15.691Z,2.77
2023-05-16T19:22:43.972Z,2.33
2023-05-16T19:25:12.268Z,2.97
2023-05-16T19:27:42.928Z,3.13
2023-05-16T19:30:12.914Z,1.07
2023-05-16T19:32:41.273Z,2.27
2023-05-16T19:35:10.959Z,1.83
2023-05-16T19:37:41.760Z,4.27
2023-05-16T19:40:11.163Z,5.03
2023-05-16T19:42:41.356Z,2.87
2023-05-16T19:45:11.333Z,3.00
2023-05-16T19:47:40.234Z,2.87
2023-05-16T19:50:10.303Z,1.83
2023-05-16T19:52:38.568Z,6.40
2023-05-16T19:55:10.508Z,4.87
2023-05-16T19:57:39.411Z,3.73
2023-05-16T20:00:11.283Z,3.30
2023-05-16T20:02:43.379Z,5.10
2023-05-16T20:05:12.693Z,1.33
2023-05-16T20:07:41.311Z,3.27
2023-05-16T20:10:11.102Z,2.40
2023-05-16T20:12:39.585Z,1.17
2023-05-16T20:15:11.084Z,2.43
2023-05-16T20:17:41.180Z,4.90
2023-05-16T20:20:10.914Z,4.77
2023-05-16T20:22:41.462Z,2.70
2023-05-16T20:25:14.714Z,3.30
2023-05-16T20:27:43.038Z,3.03
2023-05-16T20:30:14.621Z,4.40
2023-05-16T20:32:42.995Z,3.27
2023-05-16T20:35:14.850Z,1.83
2023-05-16T20:37:49.331Z,3.33
2023-05-16T20:40:17.608Z,5.30
2023-05-16T20:42:45.912Z,5.87
2023-05-16T20:45:17.420Z,4.60
2023-05-16T20:47:47.529Z,6.90
2023-05-16T20:50:15.884Z,5.97
2023-05-16T20:52:44.160Z,6.20
2023-05-16T20:55:12.446Z,10.53
2023-05-16T20:57:43.113Z,9.73
2023-05-16T21:00:16.153Z,7.80
2023-05-16T21:02:45.814Z,8.40
2023-05-16T21:05:25.006Z,6.73
2023-05-16T21:07:54.486Z,2.63
2023-05-16T21:10:22.756Z,6.30
2023-05-16T21:12:51.255Z,3.53
2023-05-16T21:15:23.022Z,1.77
2023-05-16T21:17:53.530Z,1.77
2023-05-16T21:20:21.832Z,1.93
2023-05-16T21:23:14.628Z,3.10
2023-05-16T21:25:42.819Z,3.17
2023-05-16T21:28:10.968Z,3.57
2023-05-16T21:30:39.222Z,3.17
2023-05-16T21:33:10.485Z,1.37
2023-05-16T21:35:38.937Z,1.53
2023-05-16T21:38:07.008Z,2.43
2023-05-16T21:40:35.121Z,2.60
2023-05-16T21:43:03.280Z,1.07
2023-05-16T21:45:31.389Z,2.37
2023-05-16T21:47:59.506Z,3.60
2023-05-16T21:50:29.300Z,1.57
2023-05-16T21:52:57.391Z,5.63
2023-05-16T21:55:25.896Z,2.23
2023-05-16T21:57:54.088Z,0.87
2023-05-16T22:00:24.879Z,1.43
2023-05-16T22:02:53.073Z,5.10
2023-05-16T22:05:45.924Z,4.67
2023-05-16T22:08:15.378Z,1.40
2023-05-16T22:10:43.672Z,2.90
2023-05-16T22:13:14.349Z,2.07
2023-05-16T22:15:44.523Z,2.60
2023-05-16T22:18:15.805Z,1.67
2023-05-16T22:20:44.117Z,2.83
2023-05-16T22:23:12.393Z,3.50
2023-05-16T22:25:41.809Z,4.67
2023-05-16T22:28:09.867Z,4.93
2023-05-16T22:30:38.095Z,3.63
2023-05-16T22:33:06.315Z,2.40
2023-05-16T22:35:35.070Z,3.40
2023-05-16T22:38:04.224Z,1.67
2023-05-16T22:40:32.356Z,3.00
2023-05-16T22:43:01.824Z,1.63
2023-05-16T22:45:30.045Z,3.10
2023-05-16T22:47:58.304Z,5.03
2023-05-16T22:50:26.485Z,3.20
2023-05-16T22:52:54.675Z,2.10
2023-05-16T22:55:22.917Z,1.57
2023-05-16T22:57:52.707Z,1.73
2023-05-16T23:00:23.562Z,1.00
2023-05-16T23:02:51.773Z,2.40
2023-05-16T23:05:20.317Z,1.83
2023-05-16T23:07:48.417Z,5.53
2023-05-16T23:10:16.755Z,1.40
2023-05-16T23:12:44.847Z,1.60
2023-05-16T23:15:13.447Z,5.80
2023-05-16T23:17:43.104Z,1.90
2023-05-16T23:20:12.131Z,3.53
2023-05-16T23:22:40.316Z,2.03
2023-05-16T23:25:09.427Z,2.40
2023-05-16T23:27:37.519Z,3.40
2023-05-16T23:30:07.814Z,5.80
2023-05-16T23:32:36.458Z,2.10
2023-05-16T23:35:07.417Z,2.97
2023-05-16T23:43:21.048Z,2.30
2023-05-16T23:45:49.196Z,2.53
2023-05-16T23:48:17.350Z,1.90
2023-05-16T23:50:46.829Z,2.10
2023-05-16T23:53:14.913Z,3.37
2023-05-16T23:55:43.030Z,1.67
2023-05-16T23:58:11.158Z,4.20
